Time;durP1;ratioP1;P1;durP2;ratioP2;P2;SDS_P1;SDS_P2;PMS_P1;PMS_P2;Temp;Humidity;BMP_temperature;BMP_pressure;BME280_temperature;BME280_humidity;BME280_pressure;Samples;Min_cycle;Max_cycle;Signal;HPM_P1;HPM_P2
2022/11/26 00:03:14;;;;;;;;;;;;;;;;;;5083756;28;20011;-78
2022/11/26 00:05:43;;;;;;;;;;;;;;;;;;5077114;28;20272;-79
2022/11/26 00:08:15;;;;;;;;;;;;;;;;;;5076805;28;19928;-77
2022/11/26 00:10:42;;;;;;;;;;;;;;;;;;5092545;28;19948;-77
2022/11/26 00:13:14;;;;;;;;;;;;;;;;;;5088038;28;19928;-80
2022/11/26 00:15:40;;;;;;;;;;;;;;;;;;5084816;28;20039;-77
2022/11/26 00:18:06;;;;;;;;;;;;;;;;;;5081788;28;19969;-78
2022/11/26 00:20:33;;;;;;;;;;;;;;;;;;5075537;28;19925;-77
2022/11/26 00:23:03;;;;;;;;;;;;;;;;;;5071749;28;20376;-78
2022/11/26 00:25:31;;;;;;;;;;;;;;;;;;5065021;28;19967;-77
2022/11/26 00:27:57;;;;;;;;;;;;;;;;;;5066795;28;19924;-78
2022/11/26 00:30:25;;;;;;;;;;;;;;;;;;5065699;28;19924;-78
2022/11/26 00:32:51;;;;;;;;;;;;;;;;;;5073411;28;20406;-78
2022/11/26 00:35:18;;;;;;;;;;;;;;;;;;5073638;28;19924;-77
2022/11/26 00:37:47;;;;;;;;;;;;;;;;;;5073911;28;19951;-79
2022/11/26 00:40:23;;;;;;;;;;;;;;;;;;5075003;28;20007;-78
2022/11/26 00:42:49;;;;;;;;;;;;;;;;;;5077088;28;19931;-78
2022/11/26 00:45:19;;;;;;;;;;;;;;;;;;5077958;28;20298;-78
2022/11/26 00:47:45;;;;;;;;;;;;;;;;;;5075190;28;19925;-79
2022/11/26 00:50:16;;;;;;;;;;;;;;;;;;5073146;28;19930;-78
2022/11/26 00:52:43;;;;;;;;;;;;;;;;;;5073578;28;20008;-78
2022/11/26 00:55:15;;;;;;;;;;;;;;;;;;5073975;28;19928;-79
2022/11/26 00:57:43;;;;;;;;;;;;;;;;;;5074397;28;19932;-78
2022/11/26 01:00:14;;;;;;;;;;;;;;;;;;5073599;28;20399;-78
2022/11/26 01:02:40;;;;;;;;;;;;;;;;;;5073499;28;19931;-77
2022/11/26 01:05:07;;;;;;;;;;;;;;;;;;5073645;28;19931;-78
2022/11/26 01:07:34;;;;;;;;;;;;;;;;;;5074143;28;20003;-78
2022/11/26 01:10:00;;;;;;;;;;;;;;;;;;5073169;28;20306;-78
2022/11/26 01:12:26;;;;;;;;;;;;;;;;;;5073389;28;19924;-78
2022/11/26 01:14:54;;;;;;;;;;;;;;;;;;5072799;28;19925;-78
2022/11/26 01:17:20;;;;;;;;;;;;;;;;;;5073398;28;19925;-78
2022/11/26 01:19:47;;;;;;;;;;;;;;;;;;5072668;28;20413;-77
2022/11/26 01:22:18;;;;;;;;;;;;;;;;;;5073681;28;19924;-79
2022/11/26 01:24:45;;;;;;;;;;;;;;;;;;5073490;28;19924;-78
2022/11/26 01:27:12;;;;;;;;;;;;;;;;;;5073129;28;19931;-78
2022/11/26 01:29:38;;;;;;;;;;;;;;;;;;5073121;28;19925;-78
2022/11/26 01:32:06;;;;;;;;;;;;;;;;;;5073227;28;20379;-77
2022/11/26 01:34:32;;;;;;;;;;;;;;;;;;5073533;28;20395;-76
2022/11/26 01:36:58;;;;;;;;;;;;;;;;;;5073266;28;20007;-78
2022/11/26 01:39:25;;;;;;;;;;;;;;;;;;5073112;28;19925;-78
2022/11/26 01:41:54;;;;;;;;;;;;;;;;;;5072860;28;19930;-79
2022/11/26 01:44:21;;;;;;;;;;;;;;;;;;5076946;28;19928;-78
2022/11/26 01:46:48;;;;;;;;;;;;;;;;;;5077194;28;19924;-79
2022/11/26 01:49:20;;;;;;;;;;;;;;;;;;5078980;28;20010;-78
2022/11/26 01:51:46;;;;;;;;;;;;;;;;;;5076424;28;19924;-79
2022/11/26 01:54:13;;;;;;;;;;;;;;;;;;5076658;28;19966;-78
2022/11/26 01:56:41;;;;;;;;;;;;;;;;;;5076633;28;19998;-79
2022/11/26 01:59:10;;;;;;;;;;;;;;;;;;5076188;28;19924;-78
2022/11/26 02:01:36;;;;;;;;;;;;;;;;;;5077849;28;19924;-78
2022/11/26 02:04:12;;;;;;;;;;;;;;;;;;5075894;28;19937;-78
2022/11/26 02:06:41;;;;;;;;;;;;;;;;;;5076542;28;20394;-78
2022/11/26 02:09:08;;;;;;;;;;;;;;;;;;5076497;28;19931;-78
2022/11/26 02:11:34;;;;;;;;;;;;;;;;;;5076693;28;20387;-78
2022/11/26 02:14:02;;;;;;;;;;;;;;;;;;5076917;28;20311;-78
2022/11/26 02:16:37;;;;;;;;;;;;;;;;;;5079066;28;19924;-78
2022/11/26 02:19:11;;;;;;;;;;;;;;;;;;5079347;28;19925;-78
2022/11/26 02:21:40;;;;;;;;;;;;;;;;;;5079241;28;19988;-78
2022/11/26 02:24:17;;;;;;;;;;;;;;;;;;5078849;28;19928;-78
2022/11/26 02:27:02;;;;;;;;;;;;;;;;;;5078717;28;19924;-78
2022/11/26 02:29:30;;;;;;;;;;;;;;;;;;5078477;28;19931;-78
2022/11/26 02:32:00;;;;;;;;;;;;;;;;;;5078440;28;19931;-78
2022/11/26 02:34:30;;;;;;;;;;;;;;;;;;5078389;28;19947;-78
2022/11/26 02:36:58;;;;;;;;;;;;;;;;;;5078097;28;20342;-77
2022/11/26 02:39:26;;;;;;;;;;;;;;;;;;5078164;28;19924;-77
2022/11/26 02:41:53;;;;;;;;;;;;;;;;;;5077909;28;19931;-78
2022/11/26 02:44:22;;;;;;;;;;;;;;;;;;5077477;28;19925;-78
2022/11/26 02:46:49;;;;;;;;;;;;;;;;;;5077386;28;19931;-77
2022/11/26 02:49:19;;;;;;;;;;;;;;;;;;5076793;28;19931;-77
2022/11/26 02:51:47;;;;;;;;;;;;;;;;;;5077234;28;19924;-77
2022/11/26 02:54:14;;;;;;;;;;;;;;;;;;5076389;28;20010;-78
2022/11/26 02:56:41;;;;;;;;;;;;;;;;;;5076417;28;20007;-78
2022/11/26 02:59:07;;;;;;;;;;;;;;;;;;5078109;28;19924;-78
2022/11/26 03:01:36;;;;;;;;;;;;;;;;;;5078005;28;20011;-78
2022/11/26 03:04:05;;;;;;;;;;;;;;;;;;5078659;28;19924;-78
2022/11/26 03:06:34;;;;;;;;;;;;;;;;;;5078178;28;20022;-78
2022/11/26 03:09:00;;;;;;;;;;;;;;;;;;5078477;28;19944;-78
2022/11/26 03:11:28;;;;;;;;;;;;;;;;;;5077543;28;19924;-78
2022/11/26 03:13:54;;;;;;;;;;;;;;;;;;5077167;28;20000;-78
2022/11/26 03:16:21;;;;;;;;;;;;;;;;;;5084211;28;19983;-77
2022/11/26 03:18:47;;;;;;;;;;;;;;;;;;5086335;28;19925;-77
2022/11/26 03:21:13;;;;;;;;;;;;;;;;;;5089385;28;19964;-78
2022/11/26 03:23:41;;;;;;;;;;;;;;;;;;5085802;28;19984;-78
2022/11/26 03:26:08;;;;;;;;;;;;;;;;;;5085044;28;20027;-78
2022/11/26 03:28:34;;;;;;;;;;;;;;;;;;5084216;28;19946;-78
2022/11/26 03:31:00;;;;;;;;;;;;;;;;;;5083150;28;19931;-78
2022/11/26 03:33:27;;;;;;;;;;;;;;;;;;5082781;28;19982;-77
2022/11/26 03:35:53;;;;;;;;;;;;;;;;;;5082633;28;19951;-78
2022/11/26 03:38:20;;;;;;;;;;;;;;;;;;5082361;28;19924;-77
2022/11/26 03:40:56;;;;;;;;;;;;;;;;;;5082487;28;19924;-77
2022/11/26 03:43:22;;;;;;;;;;;;;;;;;;5082864;28;19939;-78
2022/11/26 03:45:49;;;;;;;;;;;;;;;;;;5083056;28;19925;-78
2022/11/26 03:48:15;;;;;;;;;;;;;;;;;;5082342;28;19932;-78
2022/11/26 03:50:41;;;;;;;;;;;;;;;;;;5083744;28;19996;-80
2022/11/26 03:53:08;;;;;;;;;;;;;;;;;;5082864;28;19931;-77
2022/11/26 03:55:34;;;;;;;;;;;;;;;;;;5084335;28;19932;-78
2022/11/26 03:58:02;;;;;;;;;;;;;;;;;;5081745;28;19929;-77
2022/11/26 04:00:28;;;;;;;;;;;;;;;;;;5081755;28;19924;-77
2022/11/26 04:02:55;;;;;;;;;;;;;;;;;;5080511;28;19931;-79
2022/11/26 04:05:21;;;;;;;;;;;;;;;;;;5060590;28;20380;-79
2022/11/26 04:07:48;;;;;;;;;;;;;;;;;;5079249;28;19931;-79
2022/11/26 04:10:14;;;;;;;;;;;;;;;;;;5078678;28;19929;-80
2022/11/26 04:12:41;;;;;;;;;;;;;;;;;;5071121;28;19986;-79
2022/11/26 04:15:09;;;;;;;;;;;;;;;;;;5072967;28;19980;-80
2022/11/26 04:17:35;;;;;;;;;;;;;;;;;;5059327;28;19931;-80
2022/11/26 04:20:02;;;;;;;;;;;;;;;;;;5071186;28;20417;-80
2022/11/26 04:22:28;;;;;;;;;;;;;;;;;;5079903;28;19925;-79
2022/11/26 04:24:55;;;;;;;;;;;;;;;;;;5079886;28;19928;-80
2022/11/26 04:27:21;;;;;;;;;;;;;;;;;;5074589;28;19934;-79
2022/11/26 04:29:47;;;;;;;;;;;;;;;;;;5079177;28;19931;-79
2022/11/26 04:32:15;;;;;;;;;;;;;;;;;;5078750;28;19924;-80
2022/11/26 04:34:41;;;;;;;;;;;;;;;;;;5078863;28;19934;-78
2022/11/26 04:37:08;;;;;;;;;;;;;;;;;;5077633;28;19931;-77
2022/11/26 04:39:35;;;;;;;;;;;;;;;;;;5079367;28;20423;-77
2022/11/26 04:42:02;;;;;;;;;;;;;;;;;;5079702;28;19938;-76
2022/11/26 04:44:28;;;;;;;;;;;;;;;;;;5080707;28;19992;-78
2022/11/26 04:46:54;;;;;;;;;;;;;;;;;;5080055;28;20380;-77
2022/11/26 04:49:22;;;;;;;;;;;;;;;;;;5080016;28;19931;-77
2022/11/26 04:51:48;;;;;;;;;;;;;;;;;;5080849;28;19925;-77
2022/11/26 04:54:15;;;;;;;;;;;;;;;;;;5081516;28;20268;-79
2022/11/26 04:56:41;;;;;;;;;;;;;;;;;;5081279;28;19974;-76
2022/11/26 04:59:08;;;;;;;;;;;;;;;;;;5080513;28;19994;-79
2022/11/26 05:01:34;;;;;;;;;;;;;;;;;;5080223;28;19932;-77
2022/11/26 05:04:00;;;;;;;;;;;;;;;;;;5079899;28;20395;-78
2022/11/26 05:06:28;;;;;;;;;;;;;;;;;;5078782;28;19931;-78
2022/11/26 05:08:54;;;;;;;;;;;;;;;;;;5077878;28;19924;-77
2022/11/26 05:11:21;;;;;;;;;;;;;;;;;;5080419;28;20294;-77
2022/11/26 05:13:47;;;;;;;;;;;;;;;;;;5085268;28;19925;-76
2022/11/26 05:16:14;;;;;;;;;;;;;;;;;;5084606;28;20367;-78
2022/11/26 05:18:40;;;;;;;;;;;;;;;;;;5075830;28;19925;-76
2022/11/26 05:21:06;;;;;;;;;;;;;;;;;;5075908;28;19939;-75
2022/11/26 05:23:34;;;;;;;;;;;;;;;;;;5075501;28;19947;-78
2022/11/26 05:26:01;;;;;;;;;;;;;;;;;;5075660;28;20041;-77
2022/11/26 05:28:27;;;;;;;;;;;;;;;;;;5075240;28;19924;-77
2022/11/26 05:30:57;;;;;;;;;;;;;;;;;;5074984;28;19932;-76
2022/11/26 05:33:23;;;;;;;;;;;;;;;;;;5075847;28;19924;-77
2022/11/26 05:35:49;;;;;;;;;;;;;;;;;;5082119;28;19925;-77
2022/11/26 05:38:16;;;;;;;;;;;;;;;;;;5084606;28;19988;-78
2022/11/26 05:40:44;;;;;;;;;;;;;;;;;;5083529;28;20015;-78
2022/11/26 05:43:11;;;;;;;;;;;;;;;;;;5082248;28;19949;-77
2022/11/26 05:45:38;;;;;;;;;;;;;;;;;;5083160;28;19967;-77
2022/11/26 05:48:05;;;;;;;;;;;;;;;;;;5082377;28;20309;-78
2022/11/26 05:50:32;;;;;;;;;;;;;;;;;;5082195;28;19924;-79
2022/11/26 05:52:58;;;;;;;;;;;;;;;;;;5082317;28;19924;-79
2022/11/26 05:55:24;;;;;;;;;;;;;;;;;;5082317;28;19980;-78
2022/11/26 05:57:52;;;;;;;;;;;;;;;;;;5085363;28;19930;-76
2022/11/26 06:00:19;;;;;;;;;;;;;;;;;;5094185;28;19928;-78
2022/11/26 06:02:45;;;;;;;;;;;;;;;;;;5094805;28;19951;-77
2022/11/26 06:05:12;;;;;;;;;;;;;;;;;;5072642;28;19948;-79
2022/11/26 06:07:38;;;;;;;;;;;;;;;;;;5071034;28;20455;-79
2022/11/26 06:10:05;;;;;;;;;;;;;;;;;;5083730;28;19972;-76
2022/11/26 06:12:32;;;;;;;;;;;;;;;;;;5083577;28;19995;-79
2022/11/26 06:15:00;;;;;;;;;;;;;;;;;;5084033;28;20114;-79
2022/11/26 06:17:26;;;;;;;;;;;;;;;;;;5084026;28;19975;-79
2022/11/26 06:19:53;;;;;;;;;;;;;;;;;;5078441;28;19948;-79
2022/11/26 06:22:19;;;;;;;;;;;;;;;;;;5083388;28;20031;-78
2022/11/26 06:24:45;;;;;;;;;;;;;;;;;;5084285;28;20020;-79
2022/11/26 06:27:12;;;;;;;;;;;;;;;;;;5084262;28;20024;-79
2022/11/26 06:29:38;;;;;;;;;;;;;;;;;;5083028;28;19996;-80
2022/11/26 06:32:06;;;;;;;;;;;;;;;;;;5084150;28;19931;-78
2022/11/26 06:34:32;;;;;;;;;;;;;;;;;;5084909;28;19956;-78
2022/11/26 06:36:59;;;;;;;;;;;;;;;;;;5085694;28;19925;-77
2022/11/26 06:39:25;;;;;;;;;;;;;;;;;;5095100;28;19959;-78
2022/11/26 06:41:52;;;;;;;;;;;;;;;;;;5093473;28;19925;-79
2022/11/26 06:44:18;;;;;;;;;;;;;;;;;;5090323;28;19988;-79
2022/11/26 06:46:45;;;;;;;;;;;;;;;;;;5084621;28;19932;-77
2022/11/26 06:49:12;;;;;;;;;;;;;;;;;;5083773;28;20008;-79
2022/11/26 06:51:39;;;;;;;;;;;;;;;;;;5083630;28;20023;-78
2022/11/26 06:54:05;;;;;;;;;;;;;;;;;;5083432;28;19931;-79
2022/11/26 06:56:34;;;;;;;;;;;;;;;;;;5083071;28;19925;-79
2022/11/26 06:59:01;;;;;;;;;;;;;;;;;;5078161;28;19929;-77
2022/11/26 07:01:27;;;;;;;;;;;;;;;;;;5062040;28;19931;-79
2022/11/26 07:03:54;;;;;;;;;;;;;;;;;;5073072;28;19934;-79
2022/11/26 07:06:23;;;;;;;;;;;;;;;;;;5078950;28;20015;-80
2022/11/26 07:08:50;;;;;;;;;;;;;;;;;;5078671;28;19964;-79
2022/11/26 07:11:16;;;;;;;;;;;;;;;;;;5064106;28;20366;-79
2022/11/26 07:13:42;;;;;;;;;;;;;;;;;;5070985;28;19929;-80
2022/11/26 07:16:09;;;;;;;;;;;;;;;;;;5069457;28;19992;-78
2022/11/26 07:18:36;;;;;;;;;;;;;;;;;;5077308;28;19925;-78
2022/11/26 07:21:06;;;;;;;;;;;;;;;;;;5063121;28;20030;-79
2022/11/26 07:23:34;;;;;;;;;;;;;;;;;;5062283;28;19924;-78
2022/11/26 07:26:01;;;;;;;;;;;;;;;;;;5062688;28;19991;-79
2022/11/26 07:28:27;;;;;;;;;;;;;;;;;;5062110;28;19940;-78
2022/11/26 07:30:54;;;;;;;;;;;;;;;;;;5072074;28;19924;-78
2022/11/26 07:33:20;;;;;;;;;;;;;;;;;;5082874;28;19931;-78
2022/11/26 07:35:47;;;;;;;;;;;;;;;;;;5083065;28;19931;-78
2022/11/26 07:38:13;;;;;;;;;;;;;;;;;;5082107;28;19931;-78
2022/11/26 07:40:41;;;;;;;;;;;;;;;;;;5082978;28;19970;-78
2022/11/26 07:43:07;;;;;;;;;;;;;;;;;;5083289;28;19930;-79
2022/11/26 07:45:35;;;;;;;;;;;;;;;;;;5082920;28;19963;-80
2022/11/26 07:48:01;;;;;;;;;;;;;;;;;;5083621;28;19925;-78
2022/11/26 07:50:28;;;;;;;;;;;;;;;;;;5083573;28;19964;-78
2022/11/26 07:52:54;;;;;;;;;;;;;;;;;;5083687;28;19983;-78
2022/11/26 07:55:21;;;;;;;;;;;;;;;;;;5082800;28;19971;-77
2022/11/26 07:57:48;;;;;;;;;;;;;;;;;;5084641;28;19971;-77
2022/11/26 08:00:15;;;;;;;;;;;;;;;;;;5086439;28;19939;-77
2022/11/26 08:02:42;;;;;;;;;;;;;;;;;;5082921;28;20007;-78
2022/11/26 08:05:08;;;;;;;;;;;;;;;;;;5074695;28;20007;-78
2022/11/26 08:07:35;;;;;;;;;;;;;;;;;;5086428;28;19984;-78
2022/11/26 08:10:02;;;;;;;;;;;;;;;;;;5086392;28;19931;-77
2022/11/26 08:12:28;;;;;;;;;;;;;;;;;;5086115;28;19931;-79
2022/11/26 08:14:56;;;;;;;;;;;;;;;;;;5067068;28;19984;-78
2022/11/26 08:17:22;;;;;;;;;;;;;;;;;;5076839;28;19936;-77
2022/11/26 08:19:49;;;;;;;;;;;;;;;;;;5076301;28;19996;-78
2022/11/26 08:22:15;;;;;;;;;;;;;;;;;;5079496;28;20041;-78
2022/11/26 08:24:41;;;;;;;;;;;;;;;;;;5088314;28;20023;-78
2022/11/26 08:27:08;;;;;;;;;;;;;;;;;;5076799;28;19924;-77
2022/11/26 08:29:35;;;;;;;;;;;;;;;;;;5074547;28;19929;-78
2022/11/26 08:32:04;;;;;;;;;;;;;;;;;;5072650;28;20066;-79
2022/11/26 08:34:30;;;;;;;;;;;;;;;;;;5078797;28;20023;-78
2022/11/26 08:36:56;;;;;;;;;;;;;;;;;;5077701;28;19974;-79
2022/11/26 08:39:23;;;;;;;;;;;;;;;;;;5077703;28;20015;-79
2022/11/26 08:41:49;;;;;;;;;;;;;;;;;;5068689;28;19999;-79
2022/11/26 08:44:16;;;;;;;;;;;;;;;;;;5078668;28;19932;-79
2022/11/26 08:46:42;;;;;;;;;;;;;;;;;;5076661;28;19935;-79
2022/11/26 08:49:11;;;;;;;;;;;;;;;;;;5075137;28;20015;-78
2022/11/26 08:51:37;;;;;;;;;;;;;;;;;;5067555;28;19931;-79
2022/11/26 08:54:04;;;;;;;;;;;;;;;;;;5059740;28;20426;-79
2022/11/26 08:56:30;;;;;;;;;;;;;;;;;;5055227;28;20401;-77
2022/11/26 08:58:57;;;;;;;;;;;;;;;;;;5057009;28;19925;-79
2022/11/26 09:01:25;;;;;;;;;;;;;;;;;;5066021;28;20409;-77
2022/11/26 09:03:52;;;;;;;;;;;;;;;;;;5076760;28;19948;-80
2022/11/26 09:06:20;;;;;;;;;;;;;;;;;;5077530;28;19924;-78
2022/11/26 09:11:27;;;;;;;;;;;;;;;;;;5075718;28;19977;-77
2022/11/26 09:13:54;;;;;;;;;;;;;;;;;;5074291;28;20430;-78
2022/11/26 09:16:20;;;;;;;;;;;;;;;;;;5076150;28;19994;-77
2022/11/26 09:18:47;;;;;;;;;;;;;;;;;;5073940;28;20304;-77
2022/11/26 09:21:13;;;;;;;;;;;;;;;;;;5074991;28;19924;-78
2022/11/26 09:23:41;;;;;;;;;;;;;;;;;;5079418;28;20440;-79
2022/11/26 09:26:08;;;;;;;;;;;;;;;;;;5083573;28;20357;-77
2022/11/26 09:28:34;;;;;;;;;;;;;;;;;;5080571;28;20031;-77
2022/11/26 09:31:01;;;;;;;;;;;;;;;;;;5083126;28;19959;-77
2022/11/26 09:33:28;;;;;;;;;;;;;;;;;;5074260;28;19931;-76
2022/11/26 09:35:54;;;;;;;;;;;;;;;;;;5060286;28;19931;-78
2022/11/26 09:38:21;;;;;;;;;;;;;;;;;;5052803;28;19986;-76
2022/11/26 09:40:54;;;;;;;;;;;;;;;;;;5053174;28;19925;-77
2022/11/26 09:43:23;;;;;;;;;;;;;;;;;;5052369;28;19970;-77
2022/11/26 09:45:52;;;;;;;;;;;;;;;;;;5052701;28;20011;-78
2022/11/26 09:48:21;;;;;;;;;;;;;;;;;;5053199;28;20557;-78
2022/11/26 09:50:49;;;;;;;;;;;;;;;;;;5069563;28;20447;-77
2022/11/26 09:53:17;;;;;;;;;;;;;;;;;;5052691;28;20303;-77
2022/11/26 09:55:45;;;;;;;;;;;;;;;;;;5066122;28;19925;-77
2022/11/26 09:58:15;;;;;;;;;;;;;;;;;;5072029;28;19929;-77
2022/11/26 10:00:42;;;;;;;;;;;;;;;;;;5062538;28;19931;-77
2022/11/26 10:03:12;;;;;;;;;;;;;;;;;;5056255;28;19929;-79
2022/11/26 10:05:42;;;;;;;;;;;;;;;;;;5060171;28;19988;-81
2022/11/26 10:08:16;;;;;;;;;;;;;;;;;;5064909;28;19925;-82
2022/11/26 10:10:46;;;;;;;;;;;;;;;;;;5060351;28;19968;-79
2022/11/26 10:13:19;;;;;;;;;;;;;;;;;;5060749;28;19925;-84
2022/11/26 10:15:50;;;;;;;;;;;;;;;;;;5061131;28;20340;-84
2022/11/26 10:18:21;;;;;;;;;;;;;;;;;;5073329;28;19928;-81
2022/11/26 10:20:54;;;;;;;;;;;;;;;;;;5070314;28;19932;-78
2022/11/26 10:23:27;;;;;;;;;;;;;;;;;;5069754;28;19932;-77
2022/11/26 10:25:54;;;;;;;;;;;;;;;;;;5075040;28;19960;-77
2022/11/26 10:28:26;;;;;;;;;;;;;;;;;;5074851;28;20463;-78
2022/11/26 10:30:58;;;;;;;;;;;;;;;;;;5073698;28;19924;-77
2022/11/26 10:33:27;;;;;;;;;;;;;;;;;;5069157;28;19924;-76
2022/11/26 10:35:54;;;;;;;;;;;;;;;;;;5055714;28;20019;-77
2022/11/26 10:38:20;;;;;;;;;;;;;;;;;;5070470;28;19924;-77
2022/11/26 10:40:47;;;;;;;;;;;;;;;;;;5075607;28;19929;-77
2022/11/26 10:43:17;;;;;;;;;;;;;;;;;;5063808;28;20334;-77
2022/11/26 10:45:45;;;;;;;;;;;;;;;;;;5056167;28;19925;-77
2022/11/26 10:48:16;;;;;;;;;;;;;;;;;;5057199;28;20015;-78
2022/11/26 10:50:53;;;;;;;;;;;;;;;;;;5072718;28;19929;-76
2022/11/26 10:53:25;;;;;;;;;;;;;;;;;;5081634;28;20006;-80
2022/11/26 10:55:52;;;;;;;;;;;;;;;;;;5081919;28;19924;-78
2022/11/26 10:58:19;;;;;;;;;;;;;;;;;;5075321;28;20011;-79
2022/11/26 11:00:53;;;;;;;;;;;;;;;;;;5076423;28;19928;-79
2022/11/26 11:03:21;;;;;;;;;;;;;;;;;;5077358;28;19924;-79
2022/11/26 11:05:48;;;;;;;;;;;;;;;;;;5079287;28;19933;-78
2022/11/26 11:08:14;;;;;;;;;;;;;;;;;;5077230;28;19924;-79
2022/11/26 11:10:52;;;;;;;;;;;;;;;;;;5077334;28;20023;-77
2022/11/26 11:13:18;;;;;;;;;;;;;;;;;;5075568;28;20011;-78
2022/11/26 11:15:45;;;;;;;;;;;;;;;;;;5074276;28;20021;-76
2022/11/26 11:18:18;;;;;;;;;;;;;;;;;;5075416;28;19924;-78
2022/11/26 11:20:51;;;;;;;;;;;;;;;;;;5075243;28;19925;-78
2022/11/26 11:23:19;;;;;;;;;;;;;;;;;;5074268;28;19929;-78
2022/11/26 11:25:47;;;;;;;;;;;;;;;;;;5074091;28;19925;-78
2022/11/26 11:28:15;;;;;;;;;;;;;;;;;;5073915;28;19925;-77
2022/11/26 11:30:43;;;;;;;;;;;;;;;;;;5073994;28;19932;-77
2022/11/26 11:33:11;;;;;;;;;;;;;;;;;;5074120;28;19931;-77
2022/11/26 11:35:39;;;;;;;;;;;;;;;;;;5073316;28;20382;-78
2022/11/26 11:38:20;;;;;;;;;;;;;;;;;;5073567;28;20459;-77
2022/11/26 11:40:47;;;;;;;;;;;;;;;;;;5073704;28;19924;-78
2022/11/26 11:43:15;;;;;;;;;;;;;;;;;;5073862;28;19931;-79
2022/11/26 11:45:42;;;;;;;;;;;;;;;;;;5073790;28;19931;-78
2022/11/26 11:48:15;;;;;;;;;;;;;;;;;;5073435;28;20018;-78
2022/11/26 11:50:45;;;;;;;;;;;;;;;;;;5073081;28;20019;-78
2022/11/26 11:53:28;;;;;;;;;;;;;;;;;;5073445;28;20417;-80
2022/11/26 11:56:11;;;;;;;;;;;;;;;;;;5073954;28;19924;-79
2022/11/26 11:58:48;;;;;;;;;;;;;;;;;;5073325;28;19932;-79
2022/11/26 12:01:20;;;;;;;;;;;;;;;;;;5073232;28;19931;-78
2022/11/26 12:04:01;;;;;;;;;;;;;;;;;;5073515;28;19925;-78
2022/11/26 12:06:35;;;;;;;;;;;;;;;;;;5063977;28;20311;-78
2022/11/26 12:09:07;;;;;;;;;;;;;;;;;;5073212;28;19925;-78
2022/11/26 12:11:38;;;;;;;;;;;;;;;;;;5073125;28;20400;-79
2022/11/26 12:14:07;;;;;;;;;;;;;;;;;;5074079;28;19931;-77
2022/11/26 12:16:36;;;;;;;;;;;;;;;;;;5074009;28;20007;-78
2022/11/26 12:19:04;;;;;;;;;;;;;;;;;;5073039;28;19924;-78
2022/11/26 12:21:35;;;;;;;;;;;;;;;;;;5075915;28;19925;-77
2022/11/26 12:24:04;;;;;;;;;;;;;;;;;;5074429;28;19924;-78
2022/11/26 12:26:32;;;;;;;;;;;;;;;;;;5072713;28;19931;-78
2022/11/26 12:29:01;;;;;;;;;;;;;;;;;;5073353;28;20308;-76
2022/11/26 12:31:30;;;;;;;;;;;;;;;;;;5073431;28;19924;-77
2022/11/26 12:33:59;;;;;;;;;;;;;;;;;;5073395;28;19925;-78
2022/11/26 12:36:28;;;;;;;;;;;;;;;;;;5073352;28;19925;-78
2022/11/26 12:38:59;;;;;;;;;;;;;;;;;;5073039;28;19925;-77
2022/11/26 12:41:27;;;;;;;;;;;;;;;;;;5072912;28;19944;-78
2022/11/26 12:43:58;;;;;;;;;;;;;;;;;;5073301;28;19924;-77
2022/11/26 12:46:27;;;;;;;;;;;;;;;;;;5073010;28;20414;-78
2022/11/26 12:48:55;;;;;;;;;;;;;;;;;;5072847;28;19930;-78
2022/11/26 12:51:24;;;;;;;;;;;;;;;;;;5072824;28;19968;-78
2022/11/26 12:53:55;;;;;;;;;;;;;;;;;;5073431;28;19992;-80
2022/11/26 12:56:30;;;;;;;;;;;;;;;;;;5073355;28;20031;-77
2022/11/26 12:59:01;;;;;;;;;;;;;;;;;;5073253;28;19924;-76
2022/11/26 13:01:28;;;;;;;;;;;;;;;;;;5072656;28;20387;-77
2022/11/26 13:03:56;;;;;;;;;;;;;;;;;;5072722;28;20023;-76
2022/11/26 13:06:32;;;;;;;;;;;;;;;;;;5073029;28;20013;-78
2022/11/26 13:09:00;;;;;;;;;;;;;;;;;;5078096;28;19966;-77
2022/11/26 13:11:32;;;;;;;;;;;;;;;;;;5078084;28;19987;-76
2022/11/26 13:14:03;;;;;;;;;;;;;;;;;;5063027;28;19933;-78
2022/11/26 13:16:34;;;;;;;;;;;;;;;;;;5055139;28;19980;-77
2022/11/26 13:19:02;;;;;;;;;;;;;;;;;;5064008;28;20011;-77
2022/11/26 13:21:32;;;;;;;;;;;;;;;;;;5074222;28;20019;-77
2022/11/26 13:24:09;;;;;;;;;;;;;;;;;;5073216;28;20048;-76
2022/11/26 13:26:44;;;;;;;;;;;;;;;;;;5072636;28;19925;-77
2022/11/26 13:29:20;;;;;;;;;;;;;;;;;;5072692;28;20019;-77
2022/11/26 13:31:53;;;;;;;;;;;;;;;;;;5073244;28;20012;-78
2022/11/26 13:34:44;;;;;;;;;;;;;;;;;;5078843;28;19925;-85
2022/11/26 13:37:20;;;;;;;;;;;;;;;;;;5077497;28;19931;-78
2022/11/26 13:40:04;;;;;;;;;;;;;;;;;;5077682;28;19925;-84
2022/11/26 13:42:49;;;;;;;;;;;;;;;;;;5079889;28;19928;-82
2022/11/26 13:45:34;;;;;;;;;;;;;;;;;;5078811;28;19947;-78
2022/11/26 13:48:05;;;;;;;;;;;;;;;;;;5079552;28;19930;-79
2022/11/26 13:50:33;;;;;;;;;;;;;;;;;;5078754;28;20439;-79
2022/11/26 13:53:01;;;;;;;;;;;;;;;;;;5077716;28;20329;-77
2022/11/26 13:55:30;;;;;;;;;;;;;;;;;;5075923;28;19928;-78
2022/11/26 13:57:59;;;;;;;;;;;;;;;;;;5075662;28;20391;-77
2022/11/26 14:00:27;;;;;;;;;;;;;;;;;;5076102;28;19925;-76
2022/11/26 14:02:54;;;;;;;;;;;;;;;;;;5075591;28;19970;-77
2022/11/26 14:05:20;;;;;;;;;;;;;;;;;;5080667;28;20023;-78
2022/11/26 14:07:47;;;;;;;;;;;;;;;;;;5060767;28;19924;-78
2022/11/26 14:10:31;;;;;;;;;;;;;;;;;;5055313;28;19972;-78
2022/11/26 14:13:15;;;;;;;;;;;;;;;;;;5048404;28;20418;-77
2022/11/26 14:15:54;;;;;;;;;;;;;;;;;;5055284;28;19932;-78
2022/11/26 14:18:36;;;;;;;;;;;;;;;;;;5054909;28;19932;-77
2022/11/26 14:21:12;;;;;;;;;;;;;;;;;;5054891;28;19925;-78
2022/11/26 14:23:42;;;;;;;;;;;;;;;;;;5074363;28;19976;-77
2022/11/26 14:26:09;;;;;;;;;;;;;;;;;;5074748;28;19928;-77
2022/11/26 14:28:37;;;;;;;;;;;;;;;;;;5074759;28;19925;-77
2022/11/26 14:31:07;;;;;;;;;;;;;;;;;;5075615;28;20003;-77
2022/11/26 14:33:34;;;;;;;;;;;;;;;;;;5075170;28;19972;-76
2022/11/26 14:36:00;;;;;;;;;;;;;;;;;;5056560;28;20012;-77
2022/11/26 14:38:30;;;;;;;;;;;;;;;;;;5063009;28;19928;-77
2022/11/26 14:40:57;;;;;;;;;;;;;;;;;;5055182;28;19964;-77
2022/11/26 14:43:24;;;;;;;;;;;;;;;;;;5058153;28;19929;-77
2022/11/26 14:46:01;;;;;;;;;;;;;;;;;;5059944;28;19924;-77
2022/11/26 14:48:29;;;;;;;;;;;;;;;;;;5074765;28;19970;-77
2022/11/26 14:50:57;;;;;;;;;;;;;;;;;;5074455;28;19931;-77
2022/11/26 14:53:25;;;;;;;;;;;;;;;;;;5074782;28;19932;-77
2022/11/26 14:55:52;;;;;;;;;;;;;;;;;;5066124;28;19931;-78
2022/11/26 14:58:19;;;;;;;;;;;;;;;;;;5054350;28;19939;-78
2022/11/26 15:01:01;;;;;;;;;;;;;;;;;;5055009;28;19925;-76
2022/11/26 15:03:27;;;;;;;;;;;;;;;;;;5054241;28;19931;-76
2022/11/26 15:05:54;;;;;;;;;;;;;;;;;;5054791;28;19925;-79
2022/11/26 15:08:23;;;;;;;;;;;;;;;;;;5054429;28;19924;-77
2022/11/26 15:10:52;;;;;;;;;;;;;;;;;;5054872;28;19928;-76
2022/11/26 15:13:23;;;;;;;;;;;;;;;;;;5053986;28;20008;-76
2022/11/26 15:15:50;;;;;;;;;;;;;;;;;;5054316;28;19966;-76
2022/11/26 15:18:18;;;;;;;;;;;;;;;;;;5053963;28;20003;-76
2022/11/26 15:20:49;;;;;;;;;;;;;;;;;;5054199;28;20019;-78
2022/11/26 15:23:15;;;;;;;;;;;;;;;;;;5059492;28;19987;-78
2022/11/26 15:25:44;;;;;;;;;;;;;;;;;;5069412;28;20342;-78
2022/11/26 15:28:16;;;;;;;;;;;;;;;;;;5063060;28;20278;-77
2022/11/26 15:30:52;;;;;;;;;;;;;;;;;;5077362;28;19925;-83
2022/11/26 15:33:20;;;;;;;;;;;;;;;;;;5074926;28;19946;-80
2022/11/26 15:35:49;;;;;;;;;;;;;;;;;;5082609;28;19976;-80
2022/11/26 15:38:16;;;;;;;;;;;;;;;;;;5082010;28;19925;-79
2022/11/26 15:40:44;;;;;;;;;;;;;;;;;;5068645;28;19924;-80
2022/11/26 15:43:18;;;;;;;;;;;;;;;;;;5074935;28;19931;-81
2022/11/26 15:45:44;;;;;;;;;;;;;;;;;;5069579;28;19979;-80
2022/11/26 15:48:16;;;;;;;;;;;;;;;;;;5069541;28;20011;-81
2022/11/26 15:50:46;;;;;;;;;;;;;;;;;;5070290;28;20012;-80
2022/11/26 15:53:17;;;;;;;;;;;;;;;;;;5077819;28;20003;-79
2022/11/26 15:55:45;;;;;;;;;;;;;;;;;;5060995;28;19925;-80
2022/11/26 15:58:17;;;;;;;;;;;;;;;;;;5058644;28;19925;-79
2022/11/26 16:00:48;;;;;;;;;;;;;;;;;;5076621;28;20015;-79
2022/11/26 16:03:36;;;;;;;;;;;;;;;;;;5073766;28;20044;-80
2022/11/26 16:06:06;;;;;;;;;;;;;;;;;;5063830;28;20445;-80
2022/11/26 16:08:32;;;;;;;;;;;;;;;;;;5074166;28;19924;-80
2022/11/26 16:11:06;;;;;;;;;;;;;;;;;;5071548;28;19946;-80
2022/11/26 16:13:33;;;;;;;;;;;;;;;;;;5070355;28;19925;-80
2022/11/26 16:16:06;;;;;;;;;;;;;;;;;;5057874;28;20011;-79
2022/11/26 16:18:35;;;;;;;;;;;;;;;;;;5068467;28;19925;-79
2022/11/26 16:21:07;;;;;;;;;;;;;;;;;;5073568;28;19924;-78
2022/11/26 16:23:34;;;;;;;;;;;;;;;;;;5072229;28;20348;-78
2022/11/26 16:26:11;;;;;;;;;;;;;;;;;;5062007;28;19928;-78
2022/11/26 16:28:41;;;;;;;;;;;;;;;;;;5074835;28;19925;-79
2022/11/26 16:31:07;;;;;;;;;;;;;;;;;;5057194;28;19935;-78
2022/11/26 16:33:35;;;;;;;;;;;;;;;;;;5075667;28;20590;-78
2022/11/26 16:36:01;;;;;;;;;;;;;;;;;;5072790;28;19924;-79
2022/11/26 16:38:29;;;;;;;;;;;;;;;;;;5071103;28;19974;-78
2022/11/26 16:40:55;;;;;;;;;;;;;;;;;;5071202;28;19950;-78
2022/11/26 16:43:22;;;;;;;;;;;;;;;;;;5071546;28;19931;-79
2022/11/26 16:45:49;;;;;;;;;;;;;;;;;;5070683;28;19973;-78
2022/11/26 16:48:20;;;;;;;;;;;;;;;;;;5082116;22;19991;-80
2022/11/26 16:50:46;;;;;;;;;;;;;;;;;;5073882;28;19928;-80
2022/11/26 16:53:13;;;;;;;;;;;;;;;;;;5071630;28;19925;-79
2022/11/26 16:55:40;;;;;;;;;;;;;;;;;;5062662;28;19931;-80
2022/11/26 16:58:07;;;;;;;;;;;;;;;;;;5073912;28;19955;-79
2022/11/26 17:00:35;;;;;;;;;;;;;;;;;;5071715;28;20419;-80